createdAt,value
2023-01-30T00:02:27.723Z,60.70
2023-01-30T00:04:55.928Z,60.60
2023-01-30T00:07:23.350Z,60.70
2023-01-30T00:09:51.543Z,61.20
2023-01-30T00:12:26.048Z,61.70
2023-01-30T00:14:59.016Z,61.70
2023-01-30T00:17:29.432Z,61.70
2023-01-30T00:20:02.410Z,61.60
2023-01-30T00:22:30.739Z,61.50
2023-01-30T00:27:40.371Z,61.30
2023-01-30T00:30:10.003Z,60.90
2023-01-30T00:35:22.798Z,60.60
2023-01-30T00:37:53.507Z,60.30
2023-01-30T00:40:21.292Z,60.40
2023-01-30T00:46:09.672Z,60.60
2023-01-30T00:51:21.801Z,60.60
2023-01-30T00:53:53.073Z,60.60
2023-01-30T00:56:22.442Z,60.80
2023-01-30T00:58:50.593Z,61.00
2023-01-30T01:01:19.286Z,60.80
2023-01-30T01:03:51.371Z,60.60
2023-01-30T01:06:29.726Z,60.70
2023-01-30T01:09:03.762Z,60.80
2023-01-30T01:11:31.978Z,60.60
2023-01-30T01:14:01.943Z,60.60
2023-01-30T01:16:31.001Z,60.60
2023-01-30T01:19:09.050Z,60.70
2023-01-30T01:21:39.595Z,60.60
2023-01-30T01:24:09.142Z,60.70
2023-01-30T01:26:39.183Z,60.90
2023-01-30T01:29:21.888Z,60.70
2023-01-30T01:31:53.185Z,60.50
2023-01-30T01:34:23.169Z,60.80
2023-01-30T01:36:54.179Z,60.50
2023-01-30T01:39:23.969Z,60.60
2023-01-30T01:41:54.440Z,60.80
2023-01-30T01:44:29.850Z,60.70
2023-01-30T01:47:01.384Z,60.40
2023-01-30T01:52:27.194Z,60.70
2023-01-30T01:55:03.807Z,61.00
2023-01-30T01:57:34.812Z,61.10
2023-01-30T02:00:15.049Z,61.20
2023-01-30T02:02:59.206Z,61.20
2023-01-30T02:05:35.682Z,61.60
2023-01-30T02:08:05.179Z,61.70
2023-01-30T02:10:48.369Z,61.80
2023-01-30T02:13:16.670Z,61.40
2023-01-30T02:15:46.297Z,61.50
2023-01-30T02:18:17.295Z,61.50
2023-01-30T02:21:18.320Z,61.80
2023-01-30T02:30:03.831Z,62.60
2023-01-30T02:33:09.445Z,62.90
2023-01-30T02:36:03.055Z,62.80
2023-01-30T02:38:50.898Z,62.60
2023-01-30T02:41:34.364Z,63.60
2023-01-30T02:44:07.084Z,63.90
2023-01-30T02:47:23.637Z,63.40
2023-01-30T02:49:56.338Z,64.20
2023-01-30T02:52:25.320Z,63.50
2023-01-30T02:54:53.158Z,63.60
2023-01-30T02:57:24.547Z,63.50
2023-01-30T02:59:59.604Z,63.70
2023-01-30T03:02:52.384Z,63.60
2023-01-30T03:05:49.753Z,63.90
2023-01-30T03:08:32.875Z,63.50
2023-01-30T03:11:05.001Z,64.00
2023-01-30T03:13:57.585Z,64.30
2023-01-30T03:16:34.707Z,65.20
2023-01-30T03:19:03.062Z,65.60
2023-01-30T03:21:31.687Z,65.50
2023-01-30T03:24:01.120Z,64.90
2023-01-30T03:26:32.862Z,64.60
2023-01-30T03:29:01.522Z,64.90
2023-01-30T03:31:29.034Z,65.20
2023-01-30T03:36:37.888Z,65.00
2023-01-30T03:41:46.513Z,65.10
2023-01-30T03:44:13.980Z,64.80
2023-01-30T03:46:44.612Z,64.60
2023-01-30T03:49:12.230Z,64.70
2023-01-30T03:51:39.392Z,65.10
2023-01-30T03:54:07.039Z,65.60
2023-01-30T03:56:34.509Z,65.70
2023-01-30T03:59:02.523Z,65.60
2023-01-30T04:01:30.660Z,65.60
2023-01-30T04:03:57.948Z,65.10
2023-01-30T04:06:34.299Z,64.50
2023-01-30T04:09:03.707Z,64.30
2023-01-30T04:11:33.077Z,64.70
2023-01-30T04:14:01.181Z,65.40
2023-01-30T04:16:29.320Z,65.50
2023-01-30T04:19:01.467Z,65.20
2023-01-30T04:21:29.073Z,65.10
2023-01-30T04:23:57.412Z,64.50
2023-01-30T04:26:35.117Z,64.90
2023-01-30T04:31:43.827Z,65.50
2023-01-30T04:34:11.269Z,64.90
2023-01-30T04:36:39.008Z,64.40
2023-01-30T04:39:08.970Z,64.50
2023-01-30T04:41:36.619Z,64.40
2023-01-30T04:44:04.197Z,63.80
2023-01-30T04:46:31.530Z,63.70
2023-01-30T04:48:59.266Z,63.50
2023-01-30T04:51:28.018Z,63.30
2023-01-30T04:53:56.697Z,63.10
2023-01-30T04:56:24.144Z,63.00
2023-01-30T04:58:52.124Z,63.20
2023-01-30T05:01:38.493Z,63.00
2023-01-30T05:04:08.112Z,62.80
2023-01-30T05:06:35.872Z,62.80
2023-01-30T05:09:03.737Z,62.60
2023-01-30T05:11:33.026Z,62.90
2023-01-30T05:14:01.113Z,63.30
2023-01-30T05:16:31.267Z,63.70
2023-01-30T05:18:59.076Z,63.70
2023-01-30T05:21:31.638Z,63.40
2023-01-30T05:24:03.421Z,63.60
2023-01-30T05:26:37.615Z,64.30
2023-01-30T05:29:08.161Z,64.30
2023-01-30T05:31:38.324Z,64.10
2023-01-30T05:34:07.427Z,63.60
2023-01-30T05:36:35.420Z,63.60
2023-01-30T05:39:04.032Z,63.40
2023-01-30T05:41:32.213Z,63.50
2023-01-30T05:44:03.208Z,63.50
2023-01-30T05:46:32.225Z,63.30
2023-01-30T05:49:00.906Z,62.90
2023-01-30T05:51:30.910Z,63.00
2023-01-30T05:53:58.730Z,63.10
2023-01-30T05:56:27.174Z,63.00
2023-01-30T05:58:58.103Z,62.80
2023-01-30T06:01:29.571Z,63.50
2023-01-30T06:03:57.466Z,63.70
2023-01-30T06:09:06.747Z,63.20
2023-01-30T06:11:39.327Z,63.00
2023-01-30T06:14:09.103Z,62.90
2023-01-30T06:16:37.655Z,62.50
2023-01-30T06:24:30.002Z,61.40
2023-01-30T06:27:01.345Z,61.70
2023-01-30T06:29:29.803Z,61.60
2023-01-30T06:31:59.241Z,61.70
2023-01-30T06:34:27.860Z,61.80
2023-01-30T06:36:58.341Z,61.90
2023-01-30T06:42:11.539Z,60.60
2023-01-30T06:44:48.932Z,60.60
2023-01-30T06:50:01.114Z,60.70
2023-01-30T06:55:11.965Z,60.80
2023-01-30T06:57:39.839Z,60.60
2023-01-30T07:00:08.611Z,61.10
2023-01-30T07:02:38.191Z,61.20
2023-01-30T07:05:08.829Z,60.80
2023-01-30T07:10:18.621Z,60.40
2023-01-30T07:12:49.346Z,60.70
2023-01-30T07:15:26.772Z,61.40
2023-01-30T07:17:54.291Z,61.50
2023-01-30T07:23:05.197Z,60.90
2023-01-30T07:25:34.864Z,60.70
2023-01-30T07:28:14.474Z,60.20
2023-01-30T07:30:46.936Z,60.40
2023-01-30T07:38:37.687Z,62.60
2023-01-30T07:41:08.147Z,62.40
2023-01-30T07:43:37.066Z,62.20
2023-01-30T07:57:21.457Z,61.30
2023-01-30T07:59:52.846Z,60.60
2023-01-30T08:02:30.269Z,60.10
2023-01-30T08:05:00.510Z,60.20
2023-01-30T08:07:28.109Z,60.60
2023-01-30T08:09:55.394Z,59.80
2023-01-30T08:12:50.302Z,58.90
2023-01-30T08:15:17.344Z,58.70
2023-01-30T08:17:53.992Z,58.40
2023-01-30T08:20:24.929Z,57.90
2023-01-30T08:22:51.990Z,57.90
2023-01-30T08:25:19.323Z,57.40
2023-01-30T08:27:46.811Z,56.40
2023-01-30T08:30:14.258Z,55.60
2023-01-30T08:32:41.389Z,55.20
2023-01-30T08:35:09.478Z,55.20
2023-01-30T08:37:37.439Z,54.90
2023-01-30T08:40:05.022Z,53.20
2023-01-30T08:42:32.775Z,53.10
2023-01-30T08:45:00.016Z,52.70
2023-01-30T08:47:27.163Z,52.90
2023-01-30T08:49:54.450Z,52.60
2023-01-30T08:52:23.327Z,51.40
2023-01-30T08:54:50.657Z,51.30
2023-01-30T08:57:17.824Z,50.50
2023-01-30T08:59:46.114Z,49.40
2023-01-30T09:02:14.737Z,48.90
2023-01-30T09:04:43.327Z,48.70
2023-01-30T09:07:11.285Z,46.20
2023-01-30T09:09:41.039Z,45.60
2023-01-30T09:12:08.354Z,43.40
2023-01-30T09:14:36.054Z,43.90
2023-01-30T09:17:03.169Z,45.40
2023-01-30T09:19:31.447Z,45.60
2023-01-30T09:21:58.924Z,45.70
2023-01-30T09:24:27.008Z,45.60
2023-01-30T09:26:57.589Z,45.40
2023-01-30T09:29:30.905Z,44.90
2023-01-30T09:32:01.392Z,43.40
2023-01-30T09:34:29.371Z,40.40
2023-01-30T09:37:04.964Z,36.90
2023-01-30T09:39:32.498Z,34.60
2023-01-30T09:42:06.079Z,33.20
2023-01-30T09:44:49.869Z,31.30
2023-01-30T09:47:40.922Z,30.40
2023-01-30T09:50:30.851Z,28.90
2023-01-30T09:53:06.555Z,27.80
2023-01-30T09:55:34.518Z,27.60
2023-01-30T09:58:02.483Z,27.20
2023-01-30T10:00:29.625Z,27.50
2023-01-30T10:03:08.861Z,28.20
2023-01-30T10:05:39.235Z,27.90
2023-01-30T10:08:35.817Z,27.30
2023-01-30T10:11:22.239Z,27.10
2023-01-30T10:14:05.873Z,27.50
2023-01-30T10:16:36.544Z,27.30
2023-01-30T10:19:45.639Z,26.50
2023-01-30T10:22:37.165Z,25.90
2023-01-30T10:25:16.543Z,24.80
2023-01-30T10:27:50.899Z,24.80
2023-01-30T10:30:18.518Z,24.00
2023-01-30T10:33:03.318Z,23.50
2023-01-30T10:35:34.469Z,23.20
2023-01-30T10:38:24.391Z,23.20
2023-01-30T10:41:39.662Z,22.70
2023-01-30T10:44:27.013Z,22.50
2023-01-30T11:14:29.185Z,22.40
2023-01-30T11:17:03.442Z,22.40
2023-01-30T11:19:34.118Z,22.00
2023-01-30T11:22:04.035Z,22.40
2023-01-30T11:24:33.850Z,21.90
2023-01-30T11:36:28.577Z,22.30
2023-01-30T11:39:37.628Z,22.50
2023-01-30T12:10:31.251Z,24.90
2023-01-30T12:13:07.331Z,25.50
2023-01-30T12:19:14.966Z,24.50
2023-01-30T12:22:30.671Z,24.20
2023-01-30T12:25:05.432Z,24.00
2023-01-30T12:27:51.602Z,24.10
2023-01-30T12:30:35.384Z,24.20
2023-01-30T12:33:04.513Z,24.10
2023-01-30T12:36:04.427Z,23.70
2023-01-30T12:38:50.370Z,23.50
2023-01-30T12:41:50.439Z,23.70
2023-01-30T12:45:01.919Z,23.90
2023-01-30T12:47:38.474Z,24.00
2023-01-30T12:50:30.467Z,24.70
2023-01-30T12:53:14.251Z,25.10
2023-01-30T12:55:53.931Z,25.90
2023-01-30T12:58:33.224Z,26.60
2023-01-30T13:01:25.626Z,26.70
2023-01-30T13:04:06.725Z,27.40
2023-01-30T13:06:55.164Z,27.30
2023-01-30T13:09:37.191Z,27.10
2023-01-30T13:12:15.756Z,27.20
2023-01-30T13:15:01.176Z,26.90
2023-01-30T13:18:00.569Z,26.80
2023-01-30T13:20:50.156Z,26.20
2023-01-30T13:23:32.386Z,25.30
2023-01-30T13:26:05.072Z,24.60
2023-01-30T13:28:36.954Z,24.60
2023-01-30T13:31:30.624Z,24.90
2023-01-30T13:34:07.564Z,24.80
2023-01-30T13:36:45.985Z,25.40
2023-01-30T13:39:24.766Z,25.60
2023-01-30T13:41:56.785Z,25.70
2023-01-30T13:44:31.683Z,26.30
2023-01-30T13:47:39.986Z,26.60
2023-01-30T13:50:25.792Z,27.00
2023-01-30T13:53:18.984Z,27.50
2023-01-30T13:55:55.454Z,26.40
2023-01-30T13:58:44.446Z,25.60
2023-01-30T14:02:12.224Z,25.10
2023-01-30T14:04:42.574Z,25.10
2023-01-30T14:07:12.669Z,25.60
2023-01-30T14:09:42.501Z,25.80
2023-01-30T14:12:20.735Z,25.80
2023-01-30T14:15:06.255Z,25.90
2023-01-30T14:17:33.416Z,26.10
2023-01-30T14:20:18.057Z,26.00
2023-01-30T14:22:55.305Z,26.20
2023-01-30T14:25:34.219Z,26.90
2023-01-30T14:28:02.098Z,27.40
2023-01-30T14:31:01.920Z,28.50
2023-01-30T14:36:40.415Z,30.70
2023-01-30T14:39:47.287Z,31.80
2023-01-30T14:42:39.567Z,32.30
2023-01-30T14:45:17.233Z,33.20
2023-01-30T14:47:49.597Z,32.90
2023-01-30T14:50:22.991Z,33.70
2023-01-30T14:52:57.064Z,33.70
2023-01-30T14:55:25.943Z,33.90
2023-01-30T14:57:58.301Z,34.00
2023-01-30T15:00:29.372Z,34.00
2023-01-30T15:03:00.148Z,34.40
2023-01-30T15:05:33.652Z,34.70
2023-01-30T15:08:04.339Z,34.90
2023-01-30T15:11:10.581Z,35.10
2023-01-30T15:13:46.398Z,35.50
2023-01-30T15:16:25.528Z,35.80
2023-01-30T15:19:05.624Z,36.20
2023-01-30T15:21:53.574Z,36.70
2023-01-30T15:24:52.461Z,37.00
2023-01-30T15:30:27.119Z,37.50
2023-01-30T15:33:09.904Z,38.00
2023-01-30T15:35:38.679Z,38.10
2023-01-30T15:38:07.655Z,38.20
2023-01-30T15:40:35.167Z,38.70
2023-01-30T15:43:36.373Z,38.60
2023-01-30T15:46:44.094Z,39.00
2023-01-30T15:49:50.838Z,39.70
2023-01-30T15:52:22.638Z,40.60
2023-01-30T15:54:53.773Z,41.10
2023-01-30T15:57:30.475Z,41.60
2023-01-30T15:59:58.049Z,41.80
2023-01-30T16:02:35.840Z,41.80
2023-01-30T16:05:16.353Z,42.10
2023-01-30T16:07:44.752Z,41.80
2023-01-30T16:10:30.432Z,41.90
2023-01-30T16:13:04.734Z,42.00
2023-01-30T16:19:05.455Z,43.10
2023-01-30T16:21:34.960Z,43.60
2023-01-30T16:24:25.019Z,44.10
2023-01-30T16:26:53.645Z,44.50
2023-01-30T16:29:26.011Z,45.20
2023-01-30T16:31:53.994Z,45.70
2023-01-30T16:34:38.854Z,45.90
2023-01-30T16:37:18.771Z,46.20
2023-01-30T16:39:46.673Z,46.30
2023-01-30T16:42:28.015Z,46.70
2023-01-30T16:45:13.530Z,47.00
2023-01-30T16:47:40.848Z,47.10
2023-01-30T16:50:25.600Z,47.40
2023-01-30T16:52:54.152Z,47.40
2023-01-30T16:55:26.421Z,47.30
2023-01-30T16:58:00.753Z,47.30
2023-01-30T17:00:34.666Z,47.10
2023-01-30T17:03:06.590Z,47.20
2023-01-30T17:05:41.053Z,47.30
2023-01-30T17:08:30.818Z,47.30
2023-01-30T17:11:01.463Z,47.20
2023-01-30T17:13:34.563Z,47.30
2023-01-30T17:16:27.900Z,47.50
2023-01-30T17:18:56.377Z,48.30
2023-01-30T17:21:26.350Z,49.50
2023-01-30T17:24:06.101Z,49.50
2023-01-30T17:26:33.476Z,49.50
2023-01-30T17:29:01.598Z,49.10
2023-01-30T17:31:28.873Z,48.80
2023-01-30T17:33:57.254Z,48.60
2023-01-30T17:36:27.196Z,48.40
2023-01-30T17:38:55.084Z,48.60
2023-01-30T17:41:24.393Z,48.80
2023-01-30T17:43:51.654Z,49.40
2023-01-30T17:46:19.662Z,50.00
2023-01-30T17:48:46.852Z,50.10
2023-01-30T17:51:14.564Z,50.10
2023-01-30T17:53:43.271Z,50.10
2023-01-30T17:56:18.519Z,49.90
2023-01-30T17:58:45.832Z,50.10
2023-01-30T18:01:16.198Z,50.20
2023-01-30T18:03:44.868Z,50.20
2023-01-30T18:06:16.021Z,50.60
2023-01-30T18:08:44.322Z,49.70
2023-01-30T18:11:12.245Z,49.80
2023-01-30T18:13:40.429Z,50.20
2023-01-30T18:16:10.856Z,50.10
2023-01-30T18:18:38.335Z,50.00
2023-01-30T18:21:06.092Z,49.90
2023-01-30T18:23:33.355Z,49.80
2023-01-30T18:26:00.905Z,50.00
2023-01-30T18:28:29.158Z,50.30
2023-01-30T18:30:56.600Z,50.50
2023-01-30T18:33:23.758Z,50.60
2023-01-30T18:35:51.418Z,50.70
2023-01-30T18:38:19.378Z,50.90
2023-01-30T18:40:46.542Z,51.10
2023-01-30T18:43:13.845Z,51.20
2023-01-30T18:45:43.594Z,51.20
2023-01-30T18:48:12.194Z,51.20
2023-01-30T18:50:39.442Z,51.30
2023-01-30T18:53:08.751Z,51.50
2023-01-30T18:55:36.539Z,51.70
2023-01-30T18:58:03.761Z,51.80
2023-01-30T19:00:30.926Z,51.50
2023-01-30T19:02:58.093Z,51.40
2023-01-30T19:05:27.678Z,51.40
2023-01-30T19:07:55.928Z,51.30
2023-01-30T19:10:23.323Z,51.90
2023-01-30T19:13:09.465Z,51.30
2023-01-30T19:15:37.244Z,51.40
2023-01-30T19:18:04.608Z,52.20
2023-01-30T19:20:31.953Z,52.80
2023-01-30T19:23:00.433Z,53.10
2023-01-30T19:25:27.634Z,53.20
2023-01-30T19:27:56.426Z,53.80
2023-01-30T19:30:24.481Z,54.30
2023-01-30T19:32:53.637Z,54.70
2023-01-30T19:35:21.257Z,55.20
2023-01-30T19:37:48.577Z,55.30
2023-01-30T19:40:22.365Z,55.20
2023-01-30T19:42:52.643Z,54.90
2023-01-30T19:45:23.294Z,54.50
2023-01-30T19:47:53.589Z,54.30
2023-01-30T19:50:20.963Z,54.30
2023-01-30T19:52:49.883Z,54.10
2023-01-30T19:55:19.083Z,54.10
2023-01-30T19:57:46.338Z,53.90
2023-01-30T20:00:14.361Z,53.80
2023-01-30T20:02:41.592Z,53.80
2023-01-30T20:05:10.039Z,53.90
2023-01-30T20:07:37.550Z,54.00
2023-01-30T20:10:08.067Z,53.90
2023-01-30T20:12:35.958Z,54.00
2023-01-30T20:15:04.944Z,54.00
2023-01-30T20:17:35.552Z,54.00
2023-01-30T20:20:02.914Z,54.10
2023-01-30T20:22:30.257Z,53.90
2023-01-30T20:24:57.508Z,54.00
2023-01-30T20:27:24.911Z,53.70
2023-01-30T20:29:53.266Z,53.80
2023-01-30T20:32:21.023Z,54.00
2023-01-30T20:34:48.517Z,54.20
2023-01-30T20:37:16.049Z,54.30
2023-01-30T20:39:43.589Z,54.20
2023-01-30T20:42:10.988Z,54.30
2023-01-30T20:44:38.437Z,54.30
2023-01-30T20:47:05.980Z,54.40
2023-01-30T20:49:34.019Z,54.30
2023-01-30T20:52:01.474Z,54.50
2023-01-30T20:54:29.311Z,54.20
2023-01-30T20:56:57.216Z,54.00
2023-01-30T20:59:25.066Z,53.90
2023-01-30T21:01:52.517Z,53.90
2023-01-30T21:04:22.289Z,54.10
2023-01-30T21:06:50.558Z,54.80
2023-01-30T21:09:19.852Z,55.00
2023-01-30T21:11:47.740Z,55.20
2023-01-30T21:14:15.938Z,55.40
2023-01-30T21:16:43.300Z,55.30
2023-01-30T21:19:13.726Z,55.40
2023-01-30T21:21:51.102Z,55.40
2023-01-30T21:24:21.053Z,55.50
2023-01-30T21:26:49.614Z,56.30
2023-01-30T21:29:20.298Z,56.60
2023-01-30T21:31:47.933Z,56.70
2023-01-30T21:34:15.306Z,56.60
2023-01-30T21:36:42.547Z,56.60
2023-01-30T21:39:34.705Z,56.50
2023-01-30T21:42:21.370Z,56.40
2023-01-30T21:44:49.803Z,56.70
2023-01-30T21:47:17.615Z,56.90
2023-01-30T21:49:46.209Z,57.20
2023-01-30T21:52:16.512Z,57.20
2023-01-30T21:54:43.671Z,56.80
2023-01-30T21:57:11.322Z,56.90
2023-01-30T21:59:38.938Z,56.90
2023-01-30T22:02:06.473Z,57.30
2023-01-30T22:04:35.044Z,57.60
2023-01-30T22:07:03.029Z,57.70
2023-01-30T22:09:37.444Z,57.50
2023-01-30T22:12:05.171Z,57.50
2023-01-30T22:14:35.417Z,56.70
2023-01-30T22:17:02.887Z,56.20
2023-01-30T22:19:42.210Z,56.40
2023-01-30T22:22:09.464Z,55.70
2023-01-30T22:24:37.357Z,54.70
2023-01-30T22:27:04.802Z,54.70
2023-01-30T22:29:32.344Z,54.10
2023-01-30T22:32:01.321Z,53.60
2023-01-30T22:34:28.436Z,53.90
2023-01-30T22:36:55.804Z,53.80
2023-01-30T22:39:23.297Z,54.20
2023-01-30T22:41:50.543Z,54.50
2023-01-30T22:44:18.008Z,54.60
2023-01-30T22:46:47.972Z,54.80
2023-01-30T22:49:15.207Z,54.50
2023-01-30T22:51:43.757Z,54.10
2023-01-30T22:54:16.031Z,53.60
2023-01-30T22:56:45.359Z,54.10
2023-01-30T22:59:12.785Z,54.40
2023-01-30T23:01:42.262Z,55.40
2023-01-30T23:04:13.413Z,56.60
2023-01-30T23:06:40.925Z,57.80
2023-01-30T23:09:09.142Z,58.70
2023-01-30T23:11:44.217Z,59.40
2023-01-30T23:14:16.100Z,60.00
2023-01-30T23:16:44.613Z,60.90
2023-01-30T23:19:12.824Z,61.50
2023-01-30T23:21:42.967Z,62.00
2023-01-30T23:24:11.908Z,62.50
2023-01-30T23:26:43.563Z,63.10
2023-01-30T23:29:13.557Z,63.30
2023-01-30T23:31:41.303Z,63.40
2023-01-30T23:34:11.761Z,63.40
2023-01-30T23:36:38.978Z,63.60
2023-01-30T23:39:06.301Z,63.80
2023-01-30T23:41:34.331Z,64.40
2023-01-30T23:44:01.553Z,64.70
2023-01-30T23:46:30.525Z,65.20
2023-01-30T23:48:58.938Z,65.00
2023-01-30T23:51:27.638Z,64.90
2023-01-30T23:53:54.852Z,64.80
2023-01-30T23:56:22.937Z,64.60
2023-01-30T23:58:50.378Z,64.40
